Time;durP1;ratioP1;P1;durP2;ratioP2;P2;SDS_P1;SDS_P2;PMS_P1;PMS_P2;Temp;Humidity;BMP_temperature;BMP_pressure;BME280_temperature;BME280_humidity;BME280_pressure;Samples;Min_cycle;Max_cycle;Signal;HPM_P1;HPM_P2
2021/12/06 00:00:33;;;;;;;19.73;13.15;;;3.60;99.90;;;;;;5111059;28;20757;-56
2021/12/06 00:03:02;;;;;;;19.80;13.43;;;3.60;99.90;;;;;;5112657;28;20379;-54
2021/12/06 00:05:28;;;;;;;22.20;14.63;;;3.60;99.90;;;;;;5107877;28;20384;-55
2021/12/06 00:07:55;;;;;;;21.88;13.98;;;3.60;99.90;;;;;;5111850;28;20401;-55
2021/12/06 00:10:21;;;;;;;20.15;13.85;;;3.50;99.90;;;;;;5111647;28;20369;-59
2021/12/06 00:12:46;;;;;;;20.50;14.20;;;3.50;99.90;;;;;;5118918;27;20408;-55
2021/12/06 00:15:13;;;;;;;21.00;14.90;;;3.50;99.90;;;;;;5111756;28;20408;-55
2021/12/06 00:17:39;;;;;;;20.48;14.60;;;3.50;99.90;;;;;;5111051;28;20526;-55
2021/12/06 00:20:07;;;;;;;24.02;15.70;;;3.50;99.90;;;;;;5110442;28;20384;-57
2021/12/06 00:22:33;;;;;;;23.15;15.45;;;3.50;99.90;;;;;;5109836;28;20416;-55
2021/12/06 00:24:59;;;;;;;19.77;14.32;;;3.60;99.90;;;;;;5111343;28;20416;-55
2021/12/06 00:27:26;;;;;;;20.30;14.77;;;3.60;99.90;;;;;;5110435;28;20384;-55
2021/12/06 00:29:53;;;;;;;21.90;14.80;;;3.70;99.90;;;;;;5105850;28;20818;-55
2021/12/06 00:32:19;;;;;;;21.23;15.30;;;3.60;99.90;;;;;;5109436;28;20486;-60
2021/12/06 00:34:45;;;;;;;22.83;15.57;;;3.60;99.90;;;;;;5110807;28;20529;-56
2021/12/06 00:40:09;;;;;;;24.23;16.50;;;5.20;99.90;;;;;;5095435;28;20384;-55
2021/12/06 00:42:34;;;;;;;23.48;16.73;;;3.40;99.90;;;;;;5109138;28;20544;-54
2021/12/06 00:45:07;;;;;;;23.77;16.88;;;3.40;99.90;;;;;;5111171;27;20380;-56
2021/12/06 00:47:33;;;;;;;27.42;16.77;;;3.40;99.90;;;;;;5107980;28;20384;-55
2021/12/06 00:49:59;;;;;;;27.35;17.17;;;4.80;99.90;;;;;;5109620;28;20389;-55
2021/12/06 00:52:25;;;;;;;25.38;16.88;;;3.40;99.90;;;;;;5108859;28;20408;-55
2021/12/06 00:54:51;;;;;;;22.47;16.20;;;3.40;99.90;;;;;;5110955;28;20404;-55
2021/12/06 00:57:17;;;;;;;24.70;16.45;;;4.90;99.90;;;;;;5111036;28;20376;-55
2021/12/06 00:59:43;;;;;;;25.05;17.80;;;3.30;99.90;;;;;;5110270;27;20372;-55
2021/12/06 01:02:10;;;;;;;24.95;17.10;;;3.30;99.90;;;;;;5110643;28;20791;-55
2021/12/06 01:04:38;;;;;;;25.70;17.38;;;3.20;99.90;;;;;;5108475;28;20475;-56
2021/12/06 01:07:05;;;;;;;24.70;17.70;;;3.20;99.90;;;;;;5110702;28;20475;-56
2021/12/06 01:09:31;;;;;;;23.13;16.70;;;3.40;99.90;;;;;;5109927;28;20373;-55
2021/12/06 01:11:57;;;;;;;26.67;17.30;;;3.30;99.90;;;;;;5110272;28;20868;-55
2021/12/06 01:14:23;;;;;;;23.85;16.83;;;3.90;99.90;;;;;;5109318;28;20431;-59
2021/12/06 01:16:49;;;;;;;27.05;16.75;;;3.20;99.90;;;;;;5110497;28;20396;-56
2021/12/06 01:19:15;;;;;;;22.90;16.90;;;3.20;99.90;;;;;;5110514;28;20842;-55
2021/12/06 01:24:11;;;;;;;22.67;17.40;;;3.30;99.90;;;;;;5110353;28;20456;-55
2021/12/06 01:32:19;;;;;;;23.70;16.37;;;3.40;99.90;;;;;;5109661;28;20903;-55
2021/12/06 01:40:03;;;;;;;23.38;16.20;;;3.30;99.90;;;;;;5108494;28;20410;-55
2021/12/06 01:42:29;;;;;;;22.70;16.30;;;3.20;99.90;;;;;;5109223;28;20419;-56
2021/12/06 01:44:57;;;;;;;23.63;16.75;;;3.20;99.90;;;;;;5110102;28;20389;-55
2021/12/06 01:47:29;;;;;;;23.75;15.90;;;3.30;99.90;;;;;;5108117;28;20407;-60
2021/12/06 01:50:17;;;;;;;21.00;15.40;;;3.40;99.90;;;;;;5110281;28;20853;-55
2021/12/06 01:52:49;;;;;;;23.95;16.35;;;3.40;99.90;;;;;;5106795;28;20389;-55
2021/12/06 01:55:19;;;;;;;27.65;17.50;;;3.50;99.90;;;;;;5109842;28;20436;-55
2021/12/06 01:57:46;;;;;;;24.27;16.73;;;3.50;99.90;;;;;;5109097;28;20471;-56
2021/12/06 02:00:36;;;;;;;26.90;16.65;;;4.50;99.90;;;;;;5109449;28;20380;-56
2021/12/06 02:03:02;;;;;;;26.40;17.38;;;3.60;99.90;;;;;;5107747;28;20783;-54
2021/12/06 02:05:28;;;;;;;26.83;18.67;;;3.60;99.90;;;;;;5108042;28;20455;-54
2021/12/06 02:07:54;;;;;;;28.63;18.70;;;3.50;99.90;;;;;;5110067;28;20472;-54
2021/12/06 02:10:21;;;;;;;28.23;19.35;;;3.40;99.90;;;;;;5109581;28;20384;-54
2021/12/06 02:12:49;;;;;;;26.50;18.17;;;4.50;99.90;;;;;;5108266;28;20404;-55
2021/12/06 02:18:12;;;;;;;25.35;18.35;;;3.30;99.90;;;;;;5101600;28;20413;-54
2021/12/06 02:20:57;;;;;;;27.45;19.02;;;3.40;99.90;;;;;;5108412;28;20428;-54
2021/12/06 02:23:23;;;;;;;28.35;18.60;;;4.10;99.90;;;;;;5106920;28;20396;-60
2021/12/06 02:25:49;;;;;;;35.67;19.23;;;3.50;99.90;;;;;;5109331;28;20380;-54
2021/12/06 02:28:17;;;;;;;27.08;18.83;;;3.50;99.90;;;;;;5106844;28;20780;-55
2021/12/06 02:30:43;;;;;;;29.10;20.80;;;3.50;99.90;;;;;;5108035;28;20377;-55
2021/12/06 02:33:08;;;;;;;30.83;20.00;;;4.80;99.90;;;;;;5109420;28;20406;-54
2021/12/06 02:35:34;;;;;;;28.57;19.07;;;3.30;99.90;;;;;;5108476;28;20408;-55
2021/12/06 02:38:02;;;;;;;27.42;19.48;;;4.80;99.90;;;;;;5106329;28;20507;-56
2021/12/06 02:40:31;;;;;;;26.90;19.13;;;3.40;99.90;;;;;;5107316;28;20388;-57
2021/12/06 02:42:58;;;;;;;25.38;17.77;;;3.40;99.90;;;;;;5108979;28;20915;-55
2021/12/06 02:45:26;;;;;;;27.38;18.17;;;3.40;99.90;;;;;;5108886;28;20392;-59
2021/12/06 02:47:57;;;;;;;26.90;16.88;;;4.30;99.90;;;;;;5109107;28;20373;-55
2021/12/06 02:50:29;;;;;;;26.42;17.98;;;3.30;99.90;;;;;;5106296;28;20375;-61
2021/12/06 02:52:55;;;;;;;24.27;16.60;;;3.30;99.90;;;;;;5109319;28;20402;-55
2021/12/06 02:55:36;;;;;;;22.58;16.33;;;3.40;99.90;;;;;;5109234;28;20404;-54
2021/12/06 02:58:21;;;;;;;24.30;17.42;;;3.40;99.90;;;;;;5108999;28;20460;-55
2021/12/06 03:00:52;;;;;;;23.98;17.45;;;3.40;99.90;;;;;;5106567;28;20466;-54
2021/12/06 03:03:19;;;;;;;26.90;18.30;;;3.40;99.90;;;;;;5109146;28;20381;-56
2021/12/06 03:05:45;;;;;;;28.10;19.57;;;3.40;99.90;;;;;;5107092;28;20470;-54
2021/12/06 03:08:11;;;;;;;30.05;20.90;;;3.40;99.90;;;;;;5109304;28;20383;-54
2021/12/06 03:10:37;;;;;;;32.30;22.90;;;3.50;99.90;;;;;;5108190;28;20464;-54
2021/12/06 03:13:04;;;;;;;30.05;20.83;;;3.50;99.90;;;;;;5109845;28;20932;-55
2021/12/06 03:15:30;;;;;;;32.75;21.83;;;3.70;99.90;;;;;;5111789;28;20506;-54
2021/12/06 03:17:56;;;;;;;34.55;23.02;;;3.40;99.90;;;;;;5113065;28;20463;-55
2021/12/06 03:20:22;;;;;;;28.92;20.00;;;3.50;99.90;;;;;;5112690;28;20376;-55
2021/12/06 03:22:48;;;;;;;30.02;20.73;;;3.40;99.90;;;;;;5111764;28;20461;-54
2021/12/06 03:25:17;;;;;;;27.15;19.88;;;3.50;99.90;;;;;;5112782;28;20451;-54
2021/12/06 03:27:43;;;;;;;29.05;19.52;;;5.00;99.90;;;;;;5111689;28;20927;-54
2021/12/06 03:30:10;;;;;;;28.27;19.60;;;3.60;99.90;;;;;;5111369;28;20823;-54
2021/12/06 03:32:36;;;;;;;27.67;19.65;;;3.70;99.90;;;;;;5112332;28;20384;-54
2021/12/06 03:35:02;;;;;;;28.35;20.00;;;3.90;99.90;;;;;;5112650;28;20416;-54
2021/12/06 03:37:28;;;;;;;30.75;20.65;;;3.70;99.90;;;;;;5111707;28;20884;-55
2021/12/06 03:39:54;;;;;;;32.17;20.08;;;3.70;99.90;;;;;;5112620;28;20872;-54
2021/12/06 03:42:22;;;;;;;32.00;21.40;;;3.70;99.90;;;;;;5112484;28;20922;-54
2021/12/06 03:44:48;;;;;;;33.70;22.25;;;3.80;99.90;;;;;;5109200;28;20380;-54
2021/12/06 03:47:32;;;;;;;32.05;22.17;;;5.10;99.90;;;;;;5112388;28;20380;-55
2021/12/06 03:49:59;;;;;;;34.08;22.00;;;4.30;99.90;;;;;;5110994;28;20377;-55
2021/12/06 03:52:26;;;;;;;33.45;21.20;;;3.80;99.90;;;;;;5111832;28;20430;-59
2021/12/06 03:54:52;;;;;;;30.48;21.70;;;4.90;99.90;;;;;;5111891;28;20400;-54
2021/12/06 03:57:19;;;;;;;31.17;21.75;;;3.80;99.90;;;;;;5112046;28;20380;-57
2021/12/06 03:59:45;;;;;;;29.23;20.08;;;3.90;99.90;;;;;;5111590;28;20393;-56
2021/12/06 04:02:11;;;;;;;33.95;20.48;;;3.90;99.90;;;;;;5112196;28;20899;-54
2021/12/06 04:04:37;;;;;;;32.55;20.70;;;4.30;99.90;;;;;;5111483;28;20380;-55
2021/12/06 04:07:04;;;;;;;33.28;20.13;;;4.00;99.90;;;;;;5111424;28;20389;-54
2021/12/06 04:09:30;;;;;;;33.55;19.80;;;4.00;99.90;;;;;;5106919;28;20384;-54
2021/12/06 04:11:56;;;;;;;31.02;19.60;;;4.00;99.90;;;;;;5107796;28;20370;-55
2021/12/06 04:14:22;;;;;;;33.47;19.53;;;3.90;99.90;;;;;;5108713;28;20422;-55
2021/12/06 04:16:48;;;;;;;30.97;19.93;;;4.00;99.90;;;;;;5109367;28;21082;-55
2021/12/06 04:19:15;;;;;;;38.20;21.40;;;4.10;99.90;;;;;;5111288;28;20448;-55
2021/12/06 04:21:43;;;;;;;32.17;20.25;;;4.10;99.90;;;;;;5110570;28;20433;-54
2021/12/06 04:24:10;;;;;;;31.75;19.17;;;5.30;99.90;;;;;;5111338;28;20388;-54
2021/12/06 04:26:36;;;;;;;33.08;20.75;;;4.10;99.90;;;;;;5110314;28;20385;-54
2021/12/06 04:29:03;;;;;;;28.65;18.27;;;4.00;99.90;;;;;;5110129;28;20392;-55
2021/12/06 04:31:33;;;;;;;28.55;17.35;;;4.00;99.90;;;;;;5110613;28;20376;-55
2021/12/06 04:33:58;;;;;;;29.65;18.98;;;3.90;99.90;;;;;;5109781;28;21160;-57
2021/12/06 04:36:25;;;;;;;31.35;19.23;;;4.00;99.90;;;;;;5110044;28;20376;-59
2021/12/06 04:38:51;;;;;;;31.10;19.02;;;4.00;99.90;;;;;;5110733;28;20377;-54
2021/12/06 04:41:17;;;;;;;33.50;20.25;;;3.90;99.90;;;;;;5111642;28;20762;-57
2021/12/06 04:43:44;;;;;;;32.35;18.50;;;3.80;99.90;;;;;;5109698;28;20400;-55
2021/12/06 04:46:09;;;;;;;33.42;19.95;;;3.60;99.90;;;;;;5109969;28;20380;-55
2021/12/06 04:48:35;;;;;;;36.17;21.53;;;3.50;99.90;;;;;;5110690;28;20388;-56
2021/12/06 04:51:01;;;;;;;35.63;20.70;;;3.50;99.90;;;;;;5111802;28;20406;-54
2021/12/06 04:53:36;;;;;;;35.10;21.80;;;3.50;99.90;;;;;;5110952;28;20373;-59
2021/12/06 04:56:11;;;;;;;34.53;20.97;;;3.50;99.90;;;;;;5110896;28;20400;-55
2021/12/06 04:58:44;;;;;;;35.20;21.27;;;3.60;99.90;;;;;;5110672;28;20379;-54
2021/12/06 05:01:14;;;;;;;36.10;21.83;;;5.10;99.90;;;;;;5105110;28;20397;-54
2021/12/06 05:03:40;;;;;;;35.05;20.63;;;4.20;99.90;;;;;;5097212;28;20478;-55
2021/12/06 05:06:11;;;;;;;40.10;22.45;;;3.60;99.90;;;;;;5111597;28;20384;-54
2021/12/06 05:08:43;;;;;;;40.13;23.88;;;3.40;99.90;;;;;;5110291;28;20376;-55
2021/12/06 05:11:10;;;;;;;40.55;23.70;;;3.40;99.90;;;;;;5111130;27;20419;-55
2021/12/06 05:13:38;;;;;;;46.30;24.13;;;3.40;99.90;;;;;;5109802;28;20454;-55
2021/12/06 05:16:04;;;;;;;42.97;23.98;;;3.40;99.90;;;;;;5109223;28;20432;-56
2021/12/06 05:18:30;;;;;;;38.78;22.65;;;3.40;99.90;;;;;;5091747;28;20386;-55
2021/12/06 05:20:56;;;;;;;42.47;23.33;;;3.40;99.90;;;;;;5090165;28;20436;-55
2021/12/06 05:23:22;;;;;;;41.22;22.75;;;3.40;99.90;;;;;;5090124;28;20378;-54
2021/12/06 05:25:47;;;;;;;41.80;24.40;;;3.30;99.90;;;;;;5088666;27;20655;-55
2021/12/06 05:28:13;;;;;;;45.15;23.50;;;3.30;99.90;;;;;;5101844;28;20437;-55
2021/12/06 05:30:40;;;;;;;41.23;23.37;;;4.70;99.90;;;;;;5093433;28;20437;-55
2021/12/06 05:33:09;;;;;;;42.17;22.67;;;3.40;99.90;;;;;;5100623;28;20889;-54
2021/12/06 05:35:35;;;;;;;41.85;22.88;;;3.40;99.90;;;;;;5088394;28;20409;-55
2021/12/06 05:38:01;;;;;;;42.67;22.97;;;3.40;99.90;;;;;;5089810;28;20727;-54
2021/12/06 05:40:33;;;;;;;38.10;21.38;;;3.50;99.90;;;;;;5089614;28;20477;-60
2021/12/06 05:43:00;;;;;;;38.70;23.02;;;3.50;99.90;;;;;;5089581;28;20378;-56
2021/12/06 05:45:28;;;;;;;38.00;21.13;;;3.60;99.90;;;;;;5089583;28;20889;-59
2021/12/06 05:47:55;;;;;;;39.43;21.77;;;3.70;99.90;;;;;;5089807;28;20378;-55
2021/12/06 05:50:22;;;;;;;37.70;21.70;;;3.70;99.90;;;;;;5089672;28;20390;-54
2021/12/06 05:52:52;;;;;;;41.60;22.90;;;3.70;99.90;;;;;;5089179;28;20475;-54
2021/12/06 05:55:19;;;;;;;40.55;22.10;;;3.70;99.90;;;;;;5089954;28;20572;-54
2021/12/06 05:57:45;;;;;;;39.70;23.13;;;4.90;99.90;;;;;;5093741;28;20394;-54
2021/12/06 06:00:14;;;;;;;38.67;21.70;;;3.60;99.90;;;;;;5105819;28;20900;-54
2021/12/06 06:02:41;;;;;;;40.80;22.40;;;3.60;99.90;;;;;;5097588;28;20486;-57
2021/12/06 06:05:08;;;;;;;40.00;21.90;;;3.70;99.90;;;;;;5089718;28;20389;-55
2021/12/06 06:07:33;;;;;;;39.05;22.35;;;3.70;99.90;;;;;;5106385;28;20390;-55
2021/12/06 06:09:59;;;;;;;35.27;20.43;;;3.80;99.90;;;;;;5110037;28;20471;-56
2021/12/06 06:12:25;;;;;;;39.80;20.60;;;3.70;99.90;;;;;;5106585;28;20546;-55
2021/12/06 06:14:52;;;;;;;37.33;21.95;;;4.90;99.90;;;;;;5121808;27;20429;-55
2021/12/06 06:17:19;;;;;;;35.78;20.20;;;3.80;99.90;;;;;;5098804;28;20450;-55
2021/12/06 06:19:49;;;;;;;34.35;19.60;;;3.70;99.90;;;;;;5109252;28;20380;-54
2021/12/06 06:22:14;;;;;;;33.85;20.23;;;3.80;99.90;;;;;;5108977;28;20491;-54
2021/12/06 06:24:40;;;;;;;31.93;20.23;;;3.90;99.90;;;;;;5101992;28;20793;-55
2021/12/06 06:27:07;;;;;;;33.45;19.90;;;4.00;99.90;;;;;;5108691;28;20410;-55
2021/12/06 06:29:34;;;;;;;32.08;19.40;;;4.00;99.90;;;;;;5104094;28;20403;-54
2021/12/06 06:32:00;;;;;;;32.90;20.50;;;4.40;99.90;;;;;;5101601;28;20407;-55
2021/12/06 06:34:29;;;;;;;37.20;21.30;;;4.00;99.90;;;;;;5103786;28;20408;-54
2021/12/06 06:36:55;;;;;;;34.35;19.73;;;3.90;99.90;;;;;;5089662;28;20736;-55
2021/12/06 06:39:22;;;;;;;31.73;19.15;;;3.80;99.90;;;;;;5089330;28;20474;-54
2021/12/06 06:41:49;;;;;;;33.10;19.58;;;3.80;99.90;;;;;;5099706;28;20480;-55
2021/12/06 06:44:17;;;;;;;35.28;21.63;;;3.80;99.90;;;;;;5092720;28;20482;-54
2021/12/06 06:46:44;;;;;;;33.22;20.35;;;3.90;99.90;;;;;;5093101;28;20379;-54
2021/12/06 06:49:10;;;;;;;33.33;20.17;;;3.90;99.90;;;;;;5114126;28;20384;-55
2021/12/06 06:51:36;;;;;;;35.63;20.52;;;3.70;99.90;;;;;;5113146;28;20463;-54
2021/12/06 06:54:02;;;;;;;34.53;20.15;;;3.70;99.90;;;;;;5114150;28;20927;-54
2021/12/06 06:56:28;;;;;;;32.83;20.13;;;3.70;99.90;;;;;;5113928;28;20459;-58
2021/12/06 06:58:54;;;;;;;39.90;20.47;;;3.60;99.90;;;;;;5113179;28;20846;-54
2021/12/06 07:01:20;;;;;;;38.05;20.77;;;3.60;99.90;;;;;;5111453;28;20376;-55
2021/12/06 07:03:49;;;;;;;36.13;20.65;;;3.40;99.90;;;;;;5104406;28;20416;-55
2021/12/06 07:06:14;;;;;;;36.30;21.27;;;3.40;99.90;;;;;;5109178;28;20475;-55
2021/12/06 07:08:42;;;;;;;57.33;25.35;;;3.50;99.90;;;;;;5110984;28;20479;-55
2021/12/06 07:11:08;;;;;;;45.83;24.15;;;3.60;99.90;;;;;;5112929;28;20877;-56
2021/12/06 07:13:38;;;;;;;36.53;20.93;;;3.70;99.90;;;;;;5111835;28;20429;-56
2021/12/06 07:16:07;;;;;;;38.97;20.42;;;3.80;99.90;;;;;;5110959;28;20427;-56
2021/12/06 07:18:33;;;;;;;34.25;19.63;;;3.80;99.90;;;;;;5112294;28;20853;-58
2021/12/06 07:20:59;;;;;;;31.70;19.80;;;3.70;99.90;;;;;;5102547;28;20425;-55
2021/12/06 07:23:25;;;;;;;34.60;20.25;;;3.90;99.90;;;;;;5111487;28;20392;-56
2021/12/06 07:25:50;;;;;;;35.65;20.30;;;4.10;99.90;;;;;;5111978;28;20988;-57
2021/12/06 07:28:16;;;;;;;37.33;22.13;;;3.90;99.90;;;;;;5112621;28;20369;-56
2021/12/06 07:30:42;;;;;;;36.90;19.90;;;4.40;99.90;;;;;;5108226;28;20398;-55
2021/12/06 07:33:08;;;;;;;35.00;19.25;;;4.00;99.90;;;;;;5108167;28;20372;-55
2021/12/06 07:35:34;;;;;;;36.53;19.40;;;3.90;99.90;;;;;;5091025;28;20405;-55
2021/12/06 07:38:03;;;;;;;35.27;19.30;;;3.80;99.90;;;;;;5102134;28;20373;-56
2021/12/06 07:40:31;;;;;;;36.40;19.90;;;3.80;99.90;;;;;;5112357;28;20389;-59
2021/12/06 07:42:57;;;;;;;38.40;19.87;;;3.70;99.90;;;;;;5112190;28;20396;-55
2021/12/06 07:45:23;;;;;;;40.03;19.17;;;3.70;99.90;;;;;;5111058;28;20392;-58
2021/12/06 07:47:49;;;;;;;38.30;20.60;;;3.70;99.90;;;;;;5107456;28;20585;-56
2021/12/06 07:50:18;;;;;;;37.28;19.20;;;3.70;99.90;;;;;;5102078;28;20376;-55
2021/12/06 07:52:44;;;;;;;40.38;20.23;;;3.90;99.90;;;;;;5091365;28;20840;-55
2021/12/06 07:55:13;;;;;;;42.90;20.02;;;4.70;99.90;;;;;;5091874;28;20892;-54
2021/12/06 07:57:39;;;;;;;44.42;21.05;;;4.90;99.90;;;;;;5097615;28;20510;-55
2021/12/06 08:00:12;;;;;;;41.90;20.83;;;5.20;99.90;;;;;;5102602;28;20929;-54
2021/12/06 08:02:38;;;;;;;44.40;20.80;;;3.90;99.90;;;;;;5094723;28;20825;-57
2021/12/06 08:07:50;;;;;;;45.63;20.98;;;3.80;99.90;;;;;;5090821;28;20462;-55
2021/12/06 08:10:17;;;;;;;49.45;22.02;;;3.80;99.90;;;;;;5099364;28;20393;-56
2021/12/06 08:12:42;;;;;;;44.63;20.40;;;3.70;99.90;;;;;;5098263;28;20396;-56
2021/12/06 08:15:09;;;;;;;45.90;21.23;;;2.80;99.90;;;;;;5100432;28;20413;-56
2021/12/06 08:17:44;;;;;;;50.10;22.67;;;3.80;99.90;;;;;;5104730;28;20388;-56
2021/12/06 08:20:16;;;;;;;52.83;21.75;;;3.80;99.90;;;;;;5111862;28;20426;-55
2021/12/06 08:22:45;;;;;;;53.65;22.30;;;3.90;99.90;;;;;;5110590;28;20403;-56
2021/12/06 08:25:12;;;;;;;54.83;21.88;;;3.90;99.90;;;;;;5111867;28;20384;-56
2021/12/06 08:27:38;;;;;;;51.63;21.40;;;3.90;99.90;;;;;;5110577;28;20871;-56
2021/12/06 08:30:05;;;;;;;55.90;21.92;;;3.90;99.90;;;;;;5111749;27;20372;-56
2021/12/06 08:32:31;;;;;;;56.65;22.52;;;4.00;99.90;;;;;;5111479;28;20380;-60
2021/12/06 08:34:56;;;;;;;55.92;20.77;;;3.90;99.90;;;;;;5110828;28;20773;-55
2021/12/06 08:37:22;;;;;;;45.40;20.30;;;3.90;99.90;;;;;;5103304;28;20723;-56
2021/12/06 08:39:48;;;;;;;49.37;20.47;;;3.70;99.90;;;;;;5101290;28;20854;-57
2021/12/06 08:42:14;;;;;;;49.80;19.42;;;3.70;99.90;;;;;;5091770;27;20439;-56
2021/12/06 08:44:39;;;;;;;43.55;19.40;;;3.80;99.90;;;;;;5088990;28;20388;-56
2021/12/06 08:47:05;;;;;;;47.83;19.83;;;3.90;99.90;;;;;;5090989;28;20378;-55
2021/12/06 08:49:31;;;;;;;42.40;17.60;;;4.00;99.90;;;;;;5089914;28;20468;-60
2021/12/06 08:51:57;;;;;;;47.97;19.10;;;4.00;99.90;;;;;;5090570;28;20389;-57
2021/12/06 08:54:29;;;;;;;45.92;18.98;;;4.60;99.90;;;;;;5090651;28;20416;-56
2021/12/06 08:56:57;;;;;;;43.70;19.20;;;4.10;99.90;;;;;;5100381;28;20457;-56
2021/12/06 08:59:24;;;;;;;43.95;19.23;;;4.30;99.90;;;;;;5108153;28;20393;-55
2021/12/06 09:01:51;;;;;;;37.27;17.40;;;5.10;99.90;;;;;;5100277;28;20491;-55
2021/12/06 09:04:17;;;;;;;37.10;17.83;;;4.80;99.90;;;;;;5107711;28;20463;-56
2021/12/06 09:06:50;;;;;;;34.70;16.48;;;5.20;99.90;;;;;;5116613;27;20476;-58
2021/12/06 09:09:16;;;;;;;37.67;17.42;;;4.80;99.90;;;;;;5098731;28;20863;-56
2021/12/06 09:11:44;;;;;;;34.08;17.13;;;4.80;99.90;;;;;;5096906;28;20389;-56
2021/12/06 09:14:10;;;;;;;33.92;16.52;;;4.60;99.90;;;;;;5096753;28;20432;-56
2021/12/06 09:16:37;;;;;;;30.63;15.60;;;4.60;99.90;;;;;;5098220;28;20495;-57
2021/12/06 09:19:08;;;;;;;35.47;15.93;;;4.60;99.90;;;;;;5100083;28;20758;-56
2021/12/06 09:21:37;;;;;;;33.20;16.13;;;4.50;99.90;;;;;;5098653;28;20953;-59
2021/12/06 09:24:05;;;;;;;32.10;14.93;;;4.50;99.90;;;;;;5094220;28;20432;-56
2021/12/06 09:26:30;;;;;;;35.30;16.90;;;4.50;99.90;;;;;;5097531;28;20421;-57
2021/12/06 09:28:57;;;;;;;34.15;16.40;;;4.50;99.90;;;;;;5097455;28;20852;-56
2021/12/06 09:31:23;;;;;;;34.78;16.13;;;4.60;99.90;;;;;;5101471;28;20483;-56
2021/12/06 09:33:49;;;;;;;39.67;16.95;;;4.70;99.90;;;;;;5110271;27;20489;-57
2021/12/06 09:36:15;;;;;;;33.47;15.70;;;4.70;99.90;;;;;;5114842;27;20781;-56
2021/12/06 09:38:44;;;;;;;33.55;15.32;;;4.60;99.90;;;;;;5105789;27;20412;-57
2021/12/06 09:41:14;;;;;;;37.25;17.58;;;4.70;99.90;;;;;;5111113;27;20383;-57
2021/12/06 09:43:42;;;;;;;32.53;15.30;;;4.90;99.90;;;;;;5109513;28;20388;-55
2021/12/06 09:46:10;;;;;;;35.42;15.30;;;5.00;99.90;;;;;;5109759;28;20392;-55
2021/12/06 09:48:37;;;;;;;33.57;14.63;;;5.00;99.90;;;;;;5100992;27;20402;-55
2021/12/06 09:51:09;;;;;;;32.60;14.52;;;4.80;99.90;;;;;;5113635;27;20455;-55
2021/12/06 09:53:37;;;;;;;33.30;15.15;;;4.80;99.90;;;;;;5112497;27;20433;-60
2021/12/06 09:56:07;;;;;;;35.28;17.02;;;4.80;99.90;;;;;;5107260;27;20430;-55
2021/12/06 09:58:33;;;;;;;32.28;15.40;;;4.90;99.90;;;;;;5102989;27;20404;-59
2021/12/06 10:01:08;;;;;;;30.85;14.48;;;6.50;99.90;;;;;;5110422;27;20397;-56
2021/12/06 10:03:36;;;;;;;31.42;15.45;;;4.80;99.90;;;;;;5118538;27;20391;-60
2021/12/06 10:06:04;;;;;;;27.85;14.27;;;4.80;99.90;;;;;;5127898;27;20781;-56
2021/12/06 10:08:32;;;;;;;25.70;13.13;;;4.80;99.90;;;;;;5129752;27;20399;-56
2021/12/06 10:10:58;;;;;;;28.48;14.23;;;4.70;99.90;;;;;;5129897;27;20371;-56
2021/12/06 10:13:24;;;;;;;28.55;14.35;;;4.90;99.90;;;;;;5123104;27;20757;-56
2021/12/06 10:15:52;;;;;;;29.30;14.23;;;4.90;99.90;;;;;;5109166;28;20943;-55
2021/12/06 10:18:20;;;;;;;24.40;13.65;;;4.80;99.90;;;;;;5109127;28;20754;-56
2021/12/06 10:20:46;;;;;;;27.50;14.30;;;4.90;99.90;;;;;;5108848;28;20395;-55
2021/12/06 10:23:13;;;;;;;26.95;13.27;;;5.20;99.90;;;;;;5109340;28;20385;-55
2021/12/06 10:25:42;;;;;;;25.40;13.02;;;5.40;99.90;;;;;;5109302;28;20472;-53
2021/12/06 10:28:08;;;;;;;26.83;12.95;;;5.60;99.90;;;;;;5109485;28;20369;-53
2021/12/06 10:30:47;;;;;;;24.75;12.60;;;5.90;99.90;;;;;;5109100;28;20387;-57
2021/12/06 10:33:22;;;;;;;23.10;12.23;;;6.30;99.90;;;;;;5109500;28;20372;-53
2021/12/06 10:35:51;;;;;;;29.55;16.38;;;6.60;99.90;;;;;;5108582;28;20566;-54
2021/12/06 10:38:40;;;;;;;23.98;12.43;;;6.50;99.90;;;;;;5109426;28;20447;-53
2021/12/06 10:41:11;;;;;;;25.15;11.98;;;6.40;99.90;;;;;;5109133;28;20383;-53
2021/12/06 10:43:39;;;;;;;23.23;12.15;;;6.00;99.90;;;;;;5108457;28;20455;-54
2021/12/06 10:46:07;;;;;;;21.77;11.23;;;6.40;99.90;;;;;;5109356;28;20420;-54
2021/12/06 10:48:38;;;;;;;24.02;13.10;;;6.70;99.90;;;;;;5107544;28;20445;-58
2021/12/06 10:51:10;;;;;;;23.25;10.90;;;7.00;99.90;;;;;;5109315;28;20368;-53
2021/12/06 10:53:45;;;;;;;21.20;10.70;;;7.10;99.90;;;;;;5108683;28;20377;-58
2021/12/06 10:56:24;;;;;;;23.42;12.13;;;6.80;99.90;;;;;;5107625;28;20408;-57
2021/12/06 10:58:55;;;;;;;20.80;10.57;;;7.00;99.90;;;;;;5108760;28;20426;-54
2021/12/06 11:01:37;;;;;;;18.58;9.63;;;7.10;99.90;;;;;;5109080;28;20380;-54
2021/12/06 11:04:08;;;;;;;18.05;8.98;;;7.10;99.90;;;;;;5108821;28;20368;-54
2021/12/06 11:06:42;;;;;;;17.67;9.30;;;7.10;99.90;;;;;;5108856;28;20472;-58
2021/12/06 11:09:10;;;;;;;19.65;9.88;;;6.80;99.90;;;;;;5109191;28;20790;-54
2021/12/06 11:11:45;;;;;;;19.13;10.80;;;6.80;99.90;;;;;;5106963;28;20398;-58
2021/12/06 11:14:14;;;;;;;19.80;11.27;;;7.10;99.90;;;;;;5108484;28;20889;-54
2021/12/06 11:16:45;;;;;;;23.67;11.02;;;7.10;99.90;;;;;;5108391;28;20373;-53
2021/12/06 11:19:16;;;;;;;19.83;10.17;;;6.90;99.90;;;;;;5109227;28;20435;-53
2021/12/06 11:21:44;;;;;;;20.15;10.10;;;6.70;99.90;;;;;;5108528;28;20449;-54
2021/12/06 11:24:15;;;;;;;17.55;9.27;;;6.70;99.90;;;;;;5109004;28;20376;-54
2021/12/06 11:26:45;;;;;;;18.35;10.80;;;6.50;99.90;;;;;;5101128;28;20390;-55
2021/12/06 11:29:25;;;;;;;19.50;10.70;;;6.50;99.90;;;;;;5088843;28;20414;-54
2021/12/06 11:32:03;;;;;;;20.90;10.80;;;6.40;99.90;;;;;;5087902;28;20435;-54
2021/12/06 11:34:36;;;;;;;20.92;11.35;;;6.30;99.90;;;;;;5090935;28;20398;-54
2021/12/06 11:37:03;;;;;;;19.75;10.35;;;6.50;99.90;;;;;;5090755;28;20386;-54
2021/12/06 11:39:29;;;;;;;17.50;10.07;;;6.70;99.90;;;;;;5092050;28;20470;-54
2021/12/06 11:41:57;;;;;;;14.60;7.40;;;6.80;99.90;;;;;;5089769;28;20465;-55
2021/12/06 11:44:34;;;;;;;15.40;7.33;;;6.80;99.90;;;;;;5091437;28;20417;-54
2021/12/06 11:47:09;;;;;;;11.10;5.57;;;6.70;99.90;;;;;;5091369;28;20382;-53
2021/12/06 11:49:50;;;;;;;12.43;6.03;;;6.80;99.90;;;;;;5091661;28;20406;-57
2021/12/06 11:52:19;;;;;;;13.25;6.28;;;7.10;99.90;;;;;;5091912;28;20754;-54
2021/12/06 11:55:14;;;;;;;9.77;4.30;;;7.00;99.90;;;;;;5090979;28;20402;-53
2021/12/06 11:57:42;;;;;;;12.00;5.15;;;6.80;99.90;;;;;;5087676;28;20425;-54
2021/12/06 12:00:13;;;;;;;11.88;5.40;;;6.60;99.90;;;;;;5092080;28;20408;-54
2021/12/06 12:02:49;;;;;;;11.18;5.63;;;6.40;99.90;;;;;;5090977;28;20978;-55
2021/12/06 12:05:31;;;;;;;11.10;5.93;;;6.20;99.90;;;;;;5091971;28;20464;-53
2021/12/06 12:08:15;;;;;;;13.20;5.50;;;6.20;99.90;;;;;;5090766;28;20503;-54
2021/12/06 12:10:42;;;;;;;12.25;5.68;;;6.20;99.90;;;;;;5091088;28;20370;-54
2021/12/06 12:13:10;;;;;;;11.40;5.63;;;6.30;99.90;;;;;;5095200;28;20495;-53
2021/12/06 12:15:37;;;;;;;10.20;4.68;;;6.40;99.90;;;;;;5111452;28;20465;-57
2021/12/06 12:18:04;;;;;;;9.50;4.40;;;6.50;99.90;;;;;;5111593;28;20903;-54
2021/12/06 12:20:30;;;;;;;10.00;3.92;;;6.60;99.90;;;;;;5110580;28;20414;-54
2021/12/06 12:23:02;;;;;;;8.27;3.97;;;6.70;99.90;;;;;;5110918;28;20451;-54
2021/12/06 12:25:34;;;;;;;8.80;4.53;;;6.70;99.90;;;;;;5112171;28;20398;-54
2021/12/06 12:28:30;;;;;;;8.13;4.40;;;6.80;99.90;;;;;;5111110;28;20419;-57
2021/12/06 12:30:59;;;;;;;8.10;3.80;;;6.80;99.90;;;;;;5110607;28;20377;-55
2021/12/06 12:33:25;;;;;;;8.48;3.88;;;6.90;99.90;;;;;;5111535;28;20389;-54
2021/12/06 12:36:10;;;;;;;8.23;3.70;;;7.00;99.90;;;;;;5109486;28;20403;-56
2021/12/06 12:38:38;;;;;;;8.75;3.25;;;7.10;99.90;;;;;;5111493;28;20377;-58
2021/12/06 12:41:10;;;;;;;6.65;3.17;;;8.50;99.90;;;;;;5111585;28;20377;-54
2021/12/06 12:43:37;;;;;;;6.50;2.40;;;7.20;99.90;;;;;;5110955;28;20381;-58
2021/12/06 12:46:13;;;;;;;7.22;2.97;;;7.00;99.90;;;;;;5110903;28;20830;-54
2021/12/06 12:48:58;;;;;;;8.73;2.80;;;6.80;99.90;;;;;;5110649;28;20403;-56
2021/12/06 12:51:30;;;;;;;7.25;3.22;;;6.60;99.90;;;;;;5110818;28;20392;-55
2021/12/06 12:54:09;;;;;;;7.88;3.90;;;6.50;99.90;;;;;;5109198;28;20428;-54
2021/12/06 12:56:37;;;;;;;7.55;3.80;;;6.60;99.90;;;;;;5110600;28;20387;-58
2021/12/06 12:59:27;;;;;;;6.37;3.00;;;6.70;99.90;;;;;;5110914;28;20388;-54
2021/12/06 13:02:13;;;;;;;8.40;3.63;;;6.90;99.90;;;;;;5110105;28;20845;-54
2021/12/06 13:04:58;;;;;;;7.10;3.50;;;7.00;99.90;;;;;;5109914;28;20615;-54
2021/12/06 13:07:28;;;;;;;7.40;3.17;;;6.90;99.90;;;;;;5110820;28;20384;-54